sensor_id;sensor_type;location;lat;lon;timestamp;pressure;altitude;pressure_sealevel;temperature;humidity
61478;BME280;47345;52.334;10.392;2022-12-07T00:00:26;100642.17;;;3.05;92.06
61478;BME280;47345;52.334;10.392;2022-12-07T00:02:57;100650.48;;;3.06;92.19
61478;BME280;47345;52.334;10.392;2022-12-07T00:05:28;100646.13;;;3.06;91.98
61478;BME280;47345;52.334;10.392;2022-12-07T00:07:59;100646.74;;;3.08;92.15
61478;BME280;47345;52.334;10.392;2022-12-07T00:10:31;100647.14;;;3.11;92.47
61478;BME280;47345;52.334;10.392;2022-12-07T00:13:03;100640.36;;;3.14;92.21
61478;BME280;47345;52.334;10.392;2022-12-07T00:15:34;100637.53;;;3.15;92.47
61478;BME280;47345;52.334;10.392;2022-12-07T00:18:05;100639.23;;;3.18;92.19
61478;BME280;47345;52.334;10.392;2022-12-07T00:20:36;100633.57;;;3.20;92.47
61478;BME280;47345;52.334;10.392;2022-12-07T00:23:06;100627.01;;;3.22;92.38
61478;BME280;47345;52.334;10.392;2022-12-07T00:25:37;100624.24;;;3.24;92.63
61478;BME280;47345;52.334;10.392;2022-12-07T00:28:08;100624.02;;;3.25;92.38
61478;BME280;47345;52.334;10.392;2022-12-07T00:30:40;100630.65;;;3.27;92.63
61478;BME280;47345;52.334;10.392;2022-12-07T00:33:10;100629.96;;;3.31;92.55
61478;BME280;47345;52.334;10.392;2022-12-07T00:35:41;100631.16;;;3.33;92.67
61478;BME280;47345;52.334;10.392;2022-12-07T00:38:12;100625.52;;;3.35;92.62
61478;BME280;47345;52.334;10.392;2022-12-07T00:40:43;100623.27;;;3.36;92.73
61478;BME280;47345;52.334;10.392;2022-12-07T00:43:14;100622.21;;;3.37;92.54
61478;BME280;47345;52.334;10.392;2022-12-07T00:45:45;100615.97;;;3.38;92.44
61478;BME280;47345;52.334;10.392;2022-12-07T00:48:16;100621.85;;;3.41;92.70
61478;BME280;47345;52.334;10.392;2022-12-07T00:50:47;100615.11;;;3.43;92.64
61478;BME280;47345;52.334;10.392;2022-12-07T00:53:18;100607.77;;;3.44;92.76
61478;BME280;47345;52.334;10.392;2022-12-07T00:55:49;100602.30;;;3.46;92.51
61478;BME280;47345;52.334;10.392;2022-12-07T00:58:20;100601.70;;;3.49;92.69
61478;BME280;47345;52.334;10.392;2022-12-07T01:00:51;100601.30;;;3.51;92.47
61478;BME280;47345;52.334;10.392;2022-12-07T01:03:21;100595.25;;;3.52;92.77
61478;BME280;47345;52.334;10.392;2022-12-07T01:05:53;100594.28;;;3.52;92.63
61478;BME280;47345;52.334;10.392;2022-12-07T01:08:25;100593.91;;;3.54;92.65
61478;BME280;47345;52.334;10.392;2022-12-07T01:11:01;100591.22;;;3.56;92.81
61478;BME280;47345;52.334;10.392;2022-12-07T01:13:33;100589.92;;;3.58;92.61
61478;BME280;47345;52.334;10.392;2022-12-07T01:16:05;100585.81;;;3.59;92.92
61478;BME280;47345;52.334;10.392;2022-12-07T01:18:37;100585.55;;;3.60;92.91
61478;BME280;47345;52.334;10.392;2022-12-07T01:21:11;100588.71;;;3.61;92.70
61478;BME280;47345;52.334;10.392;2022-12-07T01:23:43;100583.01;;;3.62;92.74
61478;BME280;47345;52.334;10.392;2022-12-07T01:26:15;100585.23;;;3.63;93.11
61478;BME280;47345;52.334;10.392;2022-12-07T01:28:47;100584.20;;;3.64;92.91
61478;BME280;47345;52.334;10.392;2022-12-07T01:31:20;100577.27;;;3.65;93.03
61478;BME280;47345;52.334;10.392;2022-12-07T01:33:53;100567.90;;;3.65;93.50
61478;BME280;47345;52.334;10.392;2022-12-07T01:36:25;100563.88;;;3.65;93.53
61478;BME280;47345;52.334;10.392;2022-12-07T01:38:58;100564.69;;;3.66;93.63
61478;BME280;47345;52.334;10.392;2022-12-07T01:41:30;100564.66;;;3.66;93.71
61478;BME280;47345;52.334;10.392;2022-12-07T01:44:17;100559.86;;;3.67;93.75
61478;BME280;47345;52.334;10.392;2022-12-07T01:46:48;100562.16;;;3.68;94.03
61478;BME280;47345;52.334;10.392;2022-12-07T01:49:28;100562.02;;;3.67;93.96
61478;BME280;47345;52.334;10.392;2022-12-07T01:52:06;100564.58;;;3.69;94.02
61478;BME280;47345;52.334;10.392;2022-12-07T01:54:39;100558.38;;;3.68;94.09
61478;BME280;47345;52.334;10.392;2022-12-07T01:57:11;100559.05;;;3.68;94.29
61478;BME280;47345;52.334;10.392;2022-12-07T01:59:43;100558.54;;;3.68;94.28
61478;BME280;47345;52.334;10.392;2022-12-07T02:02:17;100555.47;;;3.68;94.37
61478;BME280;47345;52.334;10.392;2022-12-07T02:04:49;100550.60;;;3.68;94.39
61478;BME280;47345;52.334;10.392;2022-12-07T02:07:21;100548.30;;;3.69;94.44
61478;BME280;47345;52.334;10.392;2022-12-07T02:09:54;100548.09;;;3.69;94.48
61478;BME280;47345;52.334;10.392;2022-12-07T02:12:25;100544.48;;;3.72;94.38
61478;BME280;47345;52.334;10.392;2022-12-07T02:14:56;100537.83;;;3.73;94.70
61478;BME280;47345;52.334;10.392;2022-12-07T02:17:34;100536.55;;;3.73;94.71
61478;BME280;47345;52.334;10.392;2022-12-07T02:20:25;100531.79;;;3.74;94.65
61478;BME280;47345;52.334;10.392;2022-12-07T02:23:27;100531.75;;;3.74;94.46
61478;BME280;47345;52.334;10.392;2022-12-07T02:29:11;100531.86;;;3.75;94.62
61478;BME280;47345;52.334;10.392;2022-12-07T02:31:48;100533.27;;;3.78;94.51
61478;BME280;47345;52.334;10.392;2022-12-07T02:34:29;100526.23;;;3.78;94.54
61478;BME280;47345;52.334;10.392;2022-12-07T02:37:03;100520.86;;;3.78;94.62
61478;BME280;47345;52.334;10.392;2022-12-07T02:39:44;100519.75;;;3.78;94.50
61478;BME280;47345;52.334;10.392;2022-12-07T02:42:15;100516.88;;;3.78;94.62
61478;BME280;47345;52.334;10.392;2022-12-07T02:44:48;100511.64;;;3.76;94.43
61478;BME280;47345;52.334;10.392;2022-12-07T02:47:20;100504.56;;;3.75;94.59
61478;BME280;47345;52.334;10.392;2022-12-07T02:49:52;100506.80;;;3.75;94.50
61478;BME280;47345;52.334;10.392;2022-12-07T02:52:23;100511.73;;;3.74;94.60
61478;BME280;47345;52.334;10.392;2022-12-07T02:54:53;100509.27;;;3.73;94.50
61478;BME280;47345;52.334;10.392;2022-12-07T02:57:40;100509.90;;;3.74;94.64
61478;BME280;47345;52.334;10.392;2022-12-07T03:00:15;100507.54;;;3.72;94.68
61478;BME280;47345;52.334;10.392;2022-12-07T03:02:55;100507.44;;;3.75;94.90
61478;BME280;47345;52.334;10.392;2022-12-07T03:05:54;100507.54;;;3.76;94.64
61478;BME280;47345;52.334;10.392;2022-12-07T03:08:33;100508.58;;;3.76;94.80
61478;BME280;47345;52.334;10.392;2022-12-07T03:11:09;100504.90;;;3.77;94.91
61478;BME280;47345;52.334;10.392;2022-12-07T03:13:46;100509.48;;;3.78;94.72
61478;BME280;47345;52.334;10.392;2022-12-07T03:16:21;100505.38;;;3.77;94.75
61478;BME280;47345;52.334;10.392;2022-12-07T03:18:55;100508.95;;;3.77;94.93
61478;BME280;47345;52.334;10.392;2022-12-07T03:21:29;100507.14;;;3.78;94.79
61478;BME280;47345;52.334;10.392;2022-12-07T03:24:05;100506.89;;;3.78;94.97
61478;BME280;47345;52.334;10.392;2022-12-07T03:26:38;100503.66;;;3.78;94.89
61478;BME280;47345;52.334;10.392;2022-12-07T03:29:16;100494.17;;;3.77;95.07
61478;BME280;47345;52.334;10.392;2022-12-07T03:31:49;100497.69;;;3.78;95.00
61478;BME280;47345;52.334;10.392;2022-12-07T03:34:27;100496.20;;;3.79;94.83
61478;BME280;47345;52.334;10.392;2022-12-07T03:37:03;100488.64;;;3.79;94.72
61478;BME280;47345;52.334;10.392;2022-12-07T03:39:39;100487.31;;;3.79;94.86
61478;BME280;47345;52.334;10.392;2022-12-07T03:42:12;100479.63;;;3.80;94.91
61478;BME280;47345;52.334;10.392;2022-12-07T03:44:43;100480.65;;;3.81;94.91
61478;BME280;47345;52.334;10.392;2022-12-07T03:47:16;100477.51;;;3.82;94.74
61478;BME280;47345;52.334;10.392;2022-12-07T03:49:53;100474.27;;;3.82;94.61
61478;BME280;47345;52.334;10.392;2022-12-07T03:52:30;100479.77;;;3.80;94.33
61478;BME280;47345;52.334;10.392;2022-12-07T03:55:07;100479.65;;;3.78;94.40
61478;BME280;47345;52.334;10.392;2022-12-07T03:57:41;100477.37;;;3.76;94.16
61478;BME280;47345;52.334;10.392;2022-12-07T04:00:14;100477.91;;;3.73;94.21
61478;BME280;47345;52.334;10.392;2022-12-07T04:02:45;100485.23;;;3.70;94.29
61478;BME280;47345;52.334;10.392;2022-12-07T04:05:16;100491.15;;;3.69;94.36
61478;BME280;47345;52.334;10.392;2022-12-07T04:07:47;100494.96;;;3.69;94.37
61478;BME280;47345;52.334;10.392;2022-12-07T04:10:17;100491.02;;;3.69;94.17
61478;BME280;47345;52.334;10.392;2022-12-07T04:12:48;100495.88;;;3.69;94.32
61478;BME280;47345;52.334;10.392;2022-12-07T04:15:19;100499.59;;;3.69;94.29
61478;BME280;47345;52.334;10.392;2022-12-07T04:17:51;100497.09;;;3.69;94.20
61478;BME280;47345;52.334;10.392;2022-12-07T04:20:21;100493.95;;;3.70;94.42
61478;BME280;47345;52.334;10.392;2022-12-07T04:22:52;100495.05;;;3.70;94.24
61478;BME280;47345;52.334;10.392;2022-12-07T04:25:22;100494.70;;;3.70;94.18
61478;BME280;47345;52.334;10.392;2022-12-07T04:27:53;100491.11;;;3.69;94.41
61478;BME280;47345;52.334;10.392;2022-12-07T04:30:23;100494.52;;;3.69;94.51
61478;BME280;47345;52.334;10.392;2022-12-07T04:32:54;100491.70;;;3.69;94.28
61478;BME280;47345;52.334;10.392;2022-12-07T04:35:26;100491.14;;;3.69;94.08
61478;BME280;47345;52.334;10.392;2022-12-07T04:37:56;100490.36;;;3.68;94.17
61478;BME280;47345;52.334;10.392;2022-12-07T04:40:27;100484.38;;;3.68;94.29
61478;BME280;47345;52.334;10.392;2022-12-07T04:42:58;100487.91;;;3.67;94.20
61478;BME280;47345;52.334;10.392;2022-12-07T04:45:28;100488.61;;;3.66;94.04
61478;BME280;47345;52.334;10.392;2022-12-07T04:47:59;100489.28;;;3.65;93.94
61478;BME280;47345;52.334;10.392;2022-12-07T04:50:30;100487.77;;;3.62;93.90
61478;BME280;47345;52.334;10.392;2022-12-07T04:53:00;100487.11;;;3.60;93.82
61478;BME280;47345;52.334;10.392;2022-12-07T04:55:31;100486.13;;;3.59;93.94
61478;BME280;47345;52.334;10.392;2022-12-07T04:58:02;100488.36;;;3.58;93.96
61478;BME280;47345;52.334;10.392;2022-12-07T05:00:32;100485.52;;;3.56;93.87
61478;BME280;47345;52.334;10.392;2022-12-07T05:03:03;100486.19;;;3.53;93.58
61478;BME280;47345;52.334;10.392;2022-12-07T05:05:34;100488.15;;;3.50;93.63
61478;BME280;47345;52.334;10.392;2022-12-07T05:08:05;100488.18;;;3.48;93.74
61478;BME280;47345;52.334;10.392;2022-12-07T05:10:36;100487.47;;;3.46;93.62
61478;BME280;47345;52.334;10.392;2022-12-07T05:13:07;100489.30;;;3.44;93.87
61478;BME280;47345;52.334;10.392;2022-12-07T05:15:37;100487.73;;;3.42;93.86
61478;BME280;47345;52.334;10.392;2022-12-07T05:18:08;100492.30;;;3.42;93.88
61478;BME280;47345;52.334;10.392;2022-12-07T05:20:39;100491.11;;;3.41;93.96
61478;BME280;47345;52.334;10.392;2022-12-07T05:23:11;100493.00;;;3.40;93.82
61478;BME280;47345;52.334;10.392;2022-12-07T05:25:42;100496.92;;;3.40;93.96
61478;BME280;47345;52.334;10.392;2022-12-07T05:28:12;100491.95;;;3.39;93.82
61478;BME280;47345;52.334;10.392;2022-12-07T05:30:42;100495.53;;;3.38;94.00
61478;BME280;47345;52.334;10.392;2022-12-07T05:33:13;100495.73;;;3.38;94.07
61478;BME280;47345;52.334;10.392;2022-12-07T05:35:44;100488.94;;;3.37;93.95
61478;BME280;47345;52.334;10.392;2022-12-07T05:38:14;100481.13;;;3.38;94.06
61478;BME280;47345;52.334;10.392;2022-12-07T05:40:45;100486.02;;;3.38;93.94
61478;BME280;47345;52.334;10.392;2022-12-07T05:43:15;100482.62;;;3.38;94.01
61478;BME280;47345;52.334;10.392;2022-12-07T05:45:46;100482.63;;;3.38;94.15
61478;BME280;47345;52.334;10.392;2022-12-07T05:48:17;100482.11;;;3.39;94.28
61478;BME280;47345;52.334;10.392;2022-12-07T05:50:48;100483.70;;;3.41;94.15
61478;BME280;47345;52.334;10.392;2022-12-07T05:53:19;100483.64;;;3.42;94.02
61478;BME280;47345;52.334;10.392;2022-12-07T05:55:54;100480.83;;;3.43;93.99
61478;BME280;47345;52.334;10.392;2022-12-07T05:58:24;100479.18;;;3.43;93.97
61478;BME280;47345;52.334;10.392;2022-12-07T06:01:13;100478.91;;;3.44;94.02
61478;BME280;47345;52.334;10.392;2022-12-07T06:03:43;100476.89;;;3.42;94.08
61478;BME280;47345;52.334;10.392;2022-12-07T06:06:14;100477.33;;;3.43;94.02
61478;BME280;47345;52.334;10.392;2022-12-07T06:08:45;100474.77;;;3.42;93.87
61478;BME280;47345;52.334;10.392;2022-12-07T06:11:16;100478.64;;;3.39;93.92
61478;BME280;47345;52.334;10.392;2022-12-07T06:14:04;100483.30;;;3.35;93.91
61478;BME280;47345;52.334;10.392;2022-12-07T06:16:35;100485.88;;;3.31;93.67
61478;BME280;47345;52.334;10.392;2022-12-07T06:19:07;100484.68;;;3.25;93.95
61478;BME280;47345;52.334;10.392;2022-12-07T06:21:37;100488.23;;;3.21;94.37
61478;BME280;47345;52.334;10.392;2022-12-07T06:24:08;100493.42;;;3.14;95.52
61478;BME280;47345;52.334;10.392;2022-12-07T06:26:39;100490.50;;;3.06;97.32
61478;BME280;47345;52.334;10.392;2022-12-07T06:29:10;100488.61;;;2.99;98.09
61478;BME280;47345;52.334;10.392;2022-12-07T06:31:41;100490.82;;;2.93;98.94
61478;BME280;47345;52.334;10.392;2022-12-07T06:34:14;100487.83;;;2.89;98.97
61478;BME280;47345;52.334;10.392;2022-12-07T06:36:44;100486.74;;;2.87;99.40
61478;BME280;47345;52.334;10.392;2022-12-07T06:39:16;100496.73;;;2.86;99.94
61478;BME280;47345;52.334;10.392;2022-12-07T06:41:47;100497.61;;;2.86;100.00
61478;BME280;47345;52.334;10.392;2022-12-07T06:44:19;100495.45;;;2.88;100.00
61478;BME280;47345;52.334;10.392;2022-12-07T06:46:50;100496.92;;;2.91;100.00
61478;BME280;47345;52.334;10.392;2022-12-07T06:49:30;100490.27;;;2.93;100.00
61478;BME280;47345;52.334;10.392;2022-12-07T06:52:01;100489.91;;;2.94;100.00
61478;BME280;47345;52.334;10.392;2022-12-07T06:54:31;100487.85;;;2.95;100.00
61478;BME280;47345;52.334;10.392;2022-12-07T06:57:02;100495.25;;;2.97;100.00
61478;BME280;47345;52.334;10.392;2022-12-07T06:59:32;100500.13;;;2.99;100.00
61478;BME280;47345;52.334;10.392;2022-12-07T07:02:03;100495.59;;;2.97;100.00
61478;BME280;47345;52.334;10.392;2022-12-07T07:04:33;100491.29;;;2.93;100.00
61478;BME280;47345;52.334;10.392;2022-12-07T07:07:03;100494.71;;;2.94;100.00
61478;BME280;47345;52.334;10.392;2022-12-07T07:09:34;100490.84;;;2.91;100.00
61478;BME280;47345;52.334;10.392;2022-12-07T07:12:05;100496.77;;;2.89;99.98
61478;BME280;47345;52.334;10.392;2022-12-07T07:14:35;100496.33;;;2.87;99.96
61478;BME280;47345;52.334;10.392;2022-12-07T07:17:05;100500.39;;;2.87;100.00
61478;BME280;47345;52.334;10.392;2022-12-07T07:19:36;100500.55;;;2.88;100.00
61478;BME280;47345;52.334;10.392;2022-12-07T07:22:07;100500.90;;;2.89;100.00
61478;BME280;47345;52.334;10.392;2022-12-07T07:24:38;100496.25;;;2.91;100.00
61478;BME280;47345;52.334;10.392;2022-12-07T07:27:09;100500.27;;;2.92;100.00
61478;BME280;47345;52.334;10.392;2022-12-07T07:29:39;100504.91;;;2.94;100.00
61478;BME280;47345;52.334;10.392;2022-12-07T07:32:10;100507.81;;;2.95;100.00
61478;BME280;47345;52.334;10.392;2022-12-07T07:34:41;100510.27;;;2.96;100.00
61478;BME280;47345;52.334;10.392;2022-12-07T07:37:12;100511.98;;;2.99;100.00
61478;BME280;47345;52.334;10.392;2022-12-07T07:39:49;100510.18;;;2.99;100.00
61478;BME280;47345;52.334;10.392;2022-12-07T07:42:20;100518.34;;;2.98;100.00
61478;BME280;47345;52.334;10.392;2022-12-07T07:44:51;100517.77;;;2.99;100.00
61478;BME280;47345;52.334;10.392;2022-12-07T07:47:22;100518.08;;;2.99;100.00
61478;BME280;47345;52.334;10.392;2022-12-07T07:49:52;100524.15;;;3.00;100.00
61478;BME280;47345;52.334;10.392;2022-12-07T07:52:23;100517.80;;;3.00;100.00
61478;BME280;47345;52.334;10.392;2022-12-07T07:54:54;100521.20;;;3.00;100.00
61478;BME280;47345;52.334;10.392;2022-12-07T07:57:24;100524.99;;;3.00;100.00
61478;BME280;47345;52.334;10.392;2022-12-07T07:59:55;100520.88;;;3.00;100.00
61478;BME280;47345;52.334;10.392;2022-12-07T08:02:25;100527.30;;;3.01;100.00
61478;BME280;47345;52.334;10.392;2022-12-07T08:04:58;100525.17;;;3.02;100.00
61478;BME280;47345;52.334;10.392;2022-12-07T08:07:29;100527.03;;;3.03;99.90
61478;BME280;47345;52.334;10.392;2022-12-07T08:10:00;100529.98;;;3.04;100.00
61478;BME280;47345;52.334;10.392;2022-12-07T08:12:31;100531.77;;;3.06;100.00
61478;BME280;47345;52.334;10.392;2022-12-07T08:15:01;100527.60;;;3.08;99.96
61478;BME280;47345;52.334;10.392;2022-12-07T08:17:32;100529.85;;;3.10;99.97
61478;BME280;47345;52.334;10.392;2022-12-07T08:20:04;100527.34;;;3.12;99.96
61478;BME280;47345;52.334;10.392;2022-12-07T08:22:35;100528.33;;;3.13;99.83
61478;BME280;47345;52.334;10.392;2022-12-07T08:25:06;100525.24;;;3.13;99.82
61478;BME280;47345;52.334;10.392;2022-12-07T08:27:37;100528.50;;;3.13;99.70
61478;BME280;47345;52.334;10.392;2022-12-07T08:30:09;100530.92;;;3.14;99.62
61478;BME280;47345;52.334;10.392;2022-12-07T08:32:39;100526.40;;;3.14;99.68
61478;BME280;47345;52.334;10.392;2022-12-07T08:35:10;100527.08;;;3.15;99.48
61478;BME280;47345;52.334;10.392;2022-12-07T08:37:41;100523.16;;;3.16;99.75
61478;BME280;47345;52.334;10.392;2022-12-07T08:40:13;100523.91;;;3.17;99.28
61478;BME280;47345;52.334;10.392;2022-12-07T08:42:47;100522.99;;;3.19;99.63
61478;BME280;47345;52.334;10.392;2022-12-07T08:45:20;100527.02;;;3.20;99.34
61478;BME280;47345;52.334;10.392;2022-12-07T08:47:58;100528.44;;;3.22;99.23
61478;BME280;47345;52.334;10.392;2022-12-07T08:50:32;100526.98;;;3.22;99.26
61478;BME280;47345;52.334;10.392;2022-12-07T08:53:05;100529.45;;;3.23;98.72
61478;BME280;47345;52.334;10.392;2022-12-07T08:55:36;100529.38;;;3.22;98.53
61478;BME280;47345;52.334;10.392;2022-12-07T08:58:07;100530.05;;;3.22;98.49
61478;BME280;47345;52.334;10.392;2022-12-07T09:00:39;100535.61;;;3.22;98.69
61478;BME280;47345;52.334;10.392;2022-12-07T09:03:09;100535.70;;;3.23;98.51
61478;BME280;47345;52.334;10.392;2022-12-07T09:05:40;100538.29;;;3.24;98.38
61478;BME280;47345;52.334;10.392;2022-12-07T09:08:11;100537.73;;;3.24;98.30
61478;BME280;47345;52.334;10.392;2022-12-07T09:10:42;100535.79;;;3.26;98.30
61478;BME280;47345;52.334;10.392;2022-12-07T09:13:13;100538.14;;;3.26;98.22
61478;BME280;47345;52.334;10.392;2022-12-07T09:15:44;100538.13;;;3.28;97.89
61478;BME280;47345;52.334;10.392;2022-12-07T09:18:15;100540.70;;;3.31;97.95
61478;BME280;47345;52.334;10.392;2022-12-07T09:20:46;100544.09;;;3.33;98.14
61478;BME280;47345;52.334;10.392;2022-12-07T09:23:17;100539.79;;;3.34;97.68
61478;BME280;47345;52.334;10.392;2022-12-07T09:25:47;100536.50;;;3.36;97.99
61478;BME280;47345;52.334;10.392;2022-12-07T09:28:18;100534.64;;;3.38;97.92
61478;BME280;47345;52.334;10.392;2022-12-07T09:30:49;100529.40;;;3.40;97.80
61478;BME280;47345;52.334;10.392;2022-12-07T09:33:39;100532.02;;;3.43;97.67
61478;BME280;47345;52.334;10.392;2022-12-07T09:36:10;100529.48;;;3.46;97.59
61478;BME280;47345;52.334;10.392;2022-12-07T09:38:41;100531.32;;;3.48;97.27
61478;BME280;47345;52.334;10.392;2022-12-07T09:41:11;100529.42;;;3.48;97.04
61478;BME280;47345;52.334;10.392;2022-12-07T09:43:41;100526.48;;;3.49;97.07
61478;BME280;47345;52.334;10.392;2022-12-07T09:46:14;100528.48;;;3.50;97.08
61478;BME280;47345;52.334;10.392;2022-12-07T09:48:47;100528.48;;;3.52;96.72
61478;BME280;47345;52.334;10.392;2022-12-07T09:51:21;100526.13;;;3.54;96.71
61478;BME280;47345;52.334;10.392;2022-12-07T09:53:55;100525.76;;;3.56;96.75
61478;BME280;47345;52.334;10.392;2022-12-07T09:56:28;100521.76;;;3.56;96.64
61478;BME280;47345;52.334;10.392;2022-12-07T09:59:01;100526.09;;;3.59;96.42
61478;BME280;47345;52.334;10.392;2022-12-07T10:01:33;100523.80;;;3.61;96.39
61478;BME280;47345;52.334;10.392;2022-12-07T10:04:11;100525.77;;;3.62;96.41
61478;BME280;47345;52.334;10.392;2022-12-07T10:06:44;100530.90;;;3.63;96.32
61478;BME280;47345;52.334;10.392;2022-12-07T10:09:16;100529.16;;;3.65;96.19
61478;BME280;47345;52.334;10.392;2022-12-07T10:12:04;100527.45;;;3.67;95.87
61478;BME280;47345;52.334;10.392;2022-12-07T10:14:37;100525.91;;;3.68;95.82
61478;BME280;47345;52.334;10.392;2022-12-07T10:17:34;100524.96;;;3.70;95.30
61478;BME280;47345;52.334;10.392;2022-12-07T10:20:15;100519.58;;;3.73;95.40
61478;BME280;47345;52.334;10.392;2022-12-07T10:23:01;100518.98;;;3.79;95.73
61478;BME280;47345;52.334;10.392;2022-12-07T10:25:33;100516.60;;;3.82;95.43
61478;BME280;47345;52.334;10.392;2022-12-07T10:28:19;100515.33;;;3.84;95.20
61478;BME280;47345;52.334;10.392;2022-12-07T10:30:55;100516.58;;;3.88;95.42
61478;BME280;47345;52.334;10.392;2022-12-07T10:33:36;100511.09;;;3.90;95.30
61478;BME280;47345;52.334;10.392;2022-12-07T10:36:23;100511.90;;;3.91;95.01
61478;BME280;47345;52.334;10.392;2022-12-07T10:39:00;100508.92;;;3.91;95.06
61478;BME280;47345;52.334;10.392;2022-12-07T10:41:32;100506.11;;;3.94;95.11
61478;BME280;47345;52.334;10.392;2022-12-07T10:44:02;100507.98;;;3.95;94.68
61478;BME280;47345;52.334;10.392;2022-12-07T10:46:46;100510.42;;;3.96;94.62
61478;BME280;47345;52.334;10.392;2022-12-07T10:49:40;100513.54;;;3.97;94.38
61478;BME280;47345;52.334;10.392;2022-12-07T10:52:20;100514.01;;;3.97;94.27
61478;BME280;47345;52.334;10.392;2022-12-07T10:55:05;100509.68;;;3.96;93.98
61478;BME280;47345;52.334;10.392;2022-12-07T10:57:50;100506.22;;;3.96;93.81
61478;BME280;47345;52.334;10.392;2022-12-07T11:00:28;100512.28;;;3.95;93.50
61478;BME280;47345;52.334;10.392;2022-12-07T11:03:17;100508.52;;;3.93;93.43
61478;BME280;47345;52.334;10.392;2022-12-07T11:05:56;100507.48;;;3.95;93.44
61478;BME280;47345;52.334;10.392;2022-12-07T11:08:44;100504.80;;;3.96;93.23
61478;BME280;47345;52.334;10.392;2022-12-07T11:11:22;100502.95;;;3.98;93.52
61478;BME280;47345;52.334;10.392;2022-12-07T11:13:59;100504.80;;;4.01;93.15
61478;BME280;47345;52.334;10.392;2022-12-07T11:16:52;100501.20;;;4.04;93.48
61478;BME280;47345;52.334;10.392;2022-12-07T11:19:49;100503.04;;;4.07;93.18
61478;BME280;47345;52.334;10.392;2022-12-07T11:22:30;100496.88;;;4.09;93.09
61478;BME280;47345;52.334;10.392;2022-12-07T11:25:17;100500.81;;;4.11;93.19
61478;BME280;47345;52.334;10.392;2022-12-07T11:28:06;100497.38;;;4.12;93.06
61478;BME280;47345;52.334;10.392;2022-12-07T11:30:45;100489.67;;;4.14;93.11
61478;BME280;47345;52.334;10.392;2022-12-07T11:33:21;100487.39;;;4.17;93.01
61478;BME280;47345;52.334;10.392;2022-12-07T11:36:04;100483.37;;;4.17;92.88
61478;BME280;47345;52.334;10.392;2022-12-07T11:38:46;100481.55;;;4.19;92.93
61478;BME280;47345;52.334;10.392;2022-12-07T11:41:22;100479.74;;;4.22;92.74
61478;BME280;47345;52.334;10.392;2022-12-07T11:44:00;100478.95;;;4.23;92.54
61478;BME280;47345;52.334;10.392;2022-12-07T11:46:45;100478.05;;;4.23;92.38
61478;BME280;47345;52.334;10.392;2022-12-07T11:49:23;100480.34;;;4.23;92.30
61478;BME280;47345;52.334;10.392;2022-12-07T11:52:00;100474.48;;;4.24;92.35
61478;BME280;47345;52.334;10.392;2022-12-07T11:54:36;100470.09;;;4.24;92.43
61478;BME280;47345;52.334;10.392;2022-12-07T11:57:15;100468.71;;;4.27;92.58
61478;BME280;47345;52.334;10.392;2022-12-07T11:59:51;100464.08;;;4.28;92.58
61478;BME280;47345;52.334;10.392;2022-12-07T12:02:26;100464.21;;;4.30;92.25
61478;BME280;47345;52.334;10.392;2022-12-07T12:05:05;100459.54;;;4.32;92.35
61478;BME280;47345;52.334;10.392;2022-12-07T12:07:44;100454.11;;;4.33;92.24
61478;BME280;47345;52.334;10.392;2022-12-07T12:10:45;100456.34;;;4.33;91.64
61478;BME280;47345;52.334;10.392;2022-12-07T12:17:01;100459.27;;;4.27;90.03
61478;BME280;47345;52.334;10.392;2022-12-07T12:20:00;100455.02;;;4.25;89.82
61478;BME280;47345;52.334;10.392;2022-12-07T12:22:35;100460.44;;;4.25;89.39
61478;BME280;47345;52.334;10.392;2022-12-07T12:25:15;100459.92;;;4.25;89.50
61478;BME280;47345;52.334;10.392;2022-12-07T12:27:50;100458.50;;;4.26;89.57
61478;BME280;47345;52.334;10.392;2022-12-07T12:30:36;100454.73;;;4.29;89.47
61478;BME280;47345;52.334;10.392;2022-12-07T12:33:15;100450.88;;;4.31;89.21
61478;BME280;47345;52.334;10.392;2022-12-07T12:36:27;100451.91;;;4.34;89.03
61478;BME280;47345;52.334;10.392;2022-12-07T12:39:16;100445.41;;;4.35;88.68
61478;BME280;47345;52.334;10.392;2022-12-07T12:42:01;100440.27;;;4.33;87.91
61478;BME280;47345;52.334;10.392;2022-12-07T12:47:59;100433.90;;;4.27;87.58
61478;BME280;47345;52.334;10.392;2022-12-07T12:50:32;100433.59;;;4.25;88.00
61478;BME280;47345;52.334;10.392;2022-12-07T12:53:22;100433.02;;;4.23;88.00
61478;BME280;47345;52.334;10.392;2022-12-07T12:56:23;100432.18;;;4.23;88.29
61478;BME280;47345;52.334;10.392;2022-12-07T12:59:24;100433.27;;;4.21;87.98
61478;BME280;47345;52.334;10.392;2022-12-07T13:01:57;100431.48;;;4.16;87.57
61478;BME280;47345;52.334;10.392;2022-12-07T13:04:50;100426.45;;;4.14;87.64
61478;BME280;47345;52.334;10.392;2022-12-07T13:07:55;100419.05;;;4.13;87.68
61478;BME280;47345;52.334;10.392;2022-12-07T13:10:35;100417.09;;;4.11;88.10
61478;BME280;47345;52.334;10.392;2022-12-07T13:13:30;100415.70;;;4.10;88.05
61478;BME280;47345;52.334;10.392;2022-12-07T13:16:39;100422.10;;;4.11;88.33
61478;BME280;47345;52.334;10.392;2022-12-07T13:25:37;100417.06;;;4.21;89.23
61478;BME280;47345;52.334;10.392;2022-12-07T13:28:15;100412.47;;;4.25;89.42
61478;BME280;47345;52.334;10.392;2022-12-07T13:31:03;100414.77;;;4.25;89.06
61478;BME280;47345;52.334;10.392;2022-12-07T13:33:35;100413.45;;;4.25;89.10
61478;BME280;47345;52.334;10.392;2022-12-07T13:36:16;100408.57;;;4.25;89.25
61478;BME280;47345;52.334;10.392;2022-12-07T13:38:52;100408.80;;;4.27;89.18
61478;BME280;47345;52.334;10.392;2022-12-07T13:41:24;100406.84;;;4.30;89.60
61478;BME280;47345;52.334;10.392;2022-12-07T13:44:02;100408.72;;;4.33;89.34